Time;durP1;ratioP1;P1;durP2;ratioP2;P2;SDS_P1;SDS_P2;PMS_P1;PMS_P2;Temp;Humidity;BMP_temperature;BMP_pressure;BME280_temperature;BME280_humidity;BME280_pressure;Samples;Min_cycle;Max_cycle;Signal;HPM_P1;HPM_P2
2022/08/10 00:01:44;;;;;;;5.53;5.10;;;;;;;19.73;58.93;102496.91;5122309;28;20256;-70
2022/08/10 00:04:10;;;;;;;6.00;5.33;;;;;;;19.73;59.52;102503.13;5121846;28;20167;-68
2022/08/10 00:06:35;;;;;;;6.20;5.70;;;;;;;19.97;58.83;102490.75;5122635;28;20170;-69
2022/08/10 00:09:01;;;;;;;6.27;5.63;;;;;;;19.37;59.86;102502.22;5121833;28;20171;-68
2022/08/10 00:11:26;;;;;;;6.17;5.67;;;;;;;19.50;60.45;102496.06;5122229;28;20163;-68
2022/08/10 00:13:52;;;;;;;6.80;5.83;;;;;;;19.53;59.94;102493.41;5121984;28;20171;-69
2022/08/10 00:16:18;;;;;;;6.80;5.33;;;;;;;19.70;60.23;102492.53;5121634;28;20203;-69
2022/08/10 00:18:43;;;;;;;6.13;5.50;;;;;;;19.82;59.58;102495.22;5121123;28;20179;-69
2022/08/10 00:21:10;;;;;;;6.00;5.50;;;;;;;19.75;59.74;102498.69;5122237;28;20786;-69
2022/08/10 00:23:36;;;;;;;6.83;5.57;;;;;;;19.71;60.10;102493.41;5120903;28;20262;-70
2022/08/10 00:26:03;;;;;;;5.97;5.37;;;;;;;19.39;60.53;102504.84;5120759;28;20425;-68
2022/08/10 00:28:29;;;;;;;5.60;4.83;;;;;;;19.31;60.18;102500.44;5121865;28;20388;-68
2022/08/10 00:30:54;;;;;;;5.20;4.80;;;;;;;18.97;61.84;102503.03;5121557;28;20648;-68
2022/08/10 00:33:20;;;;;;;7.20;4.70;;;;;;;19.08;61.00;102494.22;5121307;28;20228;-68
2022/08/10 00:35:45;;;;;;;5.90;4.97;;;;;;;18.48;63.04;102494.88;5121620;28;20204;-69
2022/08/10 00:38:11;;;;;;;5.70;5.20;;;;;;;18.75;62.88;102495.88;5121348;28;20175;-69
2022/08/10 00:40:37;;;;;;;5.40;4.90;;;;;;;18.76;62.42;102500.28;5121334;27;20178;-68
2022/08/10 00:43:02;;;;;;;8.57;7.10;;;;;;;19.31;60.80;102494.28;5121094;28;20243;-68
2022/08/10 00:45:27;;;;;;;8.33;6.77;;;;;;;19.41;60.92;102492.53;5120336;28;20168;-69
2022/08/10 00:47:54;;;;;;;5.70;5.20;;;;;;;19.38;60.75;102492.53;5121010;27;20179;-67
2022/08/10 00:50:20;;;;;;;6.30;5.70;;;;;;;19.19;61.16;102493.38;5110147;28;20183;-68
2022/08/10 00:52:46;;;;;;;5.73;5.23;;;;;;;19.27;61.14;102493.38;5120729;28;20721;-67
2022/08/10 00:55:11;;;;;;;5.43;4.97;;;;;;;19.30;61.17;102492.50;5120660;28;20242;-66
2022/08/10 00:57:37;;;;;;;5.53;5.03;;;;;;;19.50;60.60;102490.75;5119366;28;20460;-68
2022/08/10 01:00:04;;;;;;;5.73;5.23;;;;;;;19.12;60.89;102494.25;5119996;28;20175;-68
2022/08/10 01:02:30;;;;;;;5.23;4.73;;;;;;;19.01;61.71;102493.31;5120611;28;20419;-68
2022/08/10 01:04:58;;;;;;;4.87;4.47;;;;;;;18.70;62.52;102490.56;5120498;28;20508;-68
2022/08/10 01:07:40;;;;;;;5.00;4.60;;;;;;;18.27;63.20;102487.72;5119780;28;20414;-69
2022/08/10 01:10:31;;;;;;;13.70;4.80;;;;;;;18.82;62.13;102487.97;5119778;28;20398;-69
2022/08/10 01:13:16;;;;;;;5.57;5.07;;;;;;;18.82;62.05;102482.69;5120231;28;20500;-69
2022/08/10 01:16:22;;;;;;;7.00;5.00;;;;;;;18.42;63.30;102495.72;5119700;28;20392;-69
2022/08/10 01:18:54;;;;;;;6.27;4.63;;;;;;;18.61;62.75;102487.91;5038236;28;20735;-70
2022/08/10 01:21:19;;;;;;;5.00;4.50;;;;;;;18.62;62.64;102484.38;5106842;28;20508;-69
2022/08/10 01:23:57;;;;;;;5.67;5.20;;;;;;;18.85;62.79;102484.47;5120011;28;20494;-69
2022/08/10 01:26:48;;;;;;;5.73;5.23;;;;;;;18.87;62.24;102487.09;5120555;28;20608;-69
2022/08/10 01:29:38;;;;;;;5.23;4.83;;;;;;;19.11;61.86;102479.25;5119652;28;20466;-69
2022/08/10 01:32:05;;;;;;;6.50;4.97;;;;;;;18.92;62.55;102480.09;5120105;28;20444;-71
2022/08/10 01:34:35;;;;;;;5.60;5.13;;;;;;;19.14;61.56;102481.91;5113395;28;20424;-70
2022/08/10 01:37:04;;;;;;;5.40;4.90;;;;;;;18.76;62.73;102480.00;5099114;28;20436;-70
2022/08/10 01:39:36;;;;;;;5.60;5.10;;;;;;;18.84;62.56;102480.91;5100592;28;20415;-69
2022/08/10 01:42:02;;;;;;;5.70;5.17;;;;;;;18.99;62.09;102472.19;5099457;28;20410;-70
2022/08/10 01:44:31;;;;;;;5.80;5.23;;;;;;;19.01;62.24;102469.53;5101450;28;20492;-70
2022/08/10 01:48:27;;;;;;;5.30;4.80;;;;;;;18.80;62.59;102476.50;5084094;28;20280;-70
2022/08/10 01:49:47;;;;;;;9.60;4.97;;;;;;;18.98;62.14;102464.25;5100280;28;20501;-70
2022/08/10 01:52:16;;;;;;;6.17;4.93;;;;;;;18.84;62.71;102470.34;5099481;28;20483;-71
2022/08/10 01:54:43;;;;;;;5.30;4.80;;;;;;;18.98;62.79;102474.81;5098378;28;20725;-70
2022/08/10 01:57:10;;;;;;;8.10;5.50;;;;;;;18.85;62.88;102474.75;5098907;28;20424;-69
2022/08/10 01:59:38;;;;;;;5.90;5.30;;;;;;;18.64;63.77;102472.03;5099404;28;20415;-70
2022/08/10 02:02:13;;;;;;;5.87;5.37;;;;;;;18.70;63.58;102472.09;5098518;28;20421;-70
2022/08/10 02:04:40;;;;;;;6.83;4.63;;;;;;;18.68;63.68;102465.91;5098309;28;20422;-70
2022/08/10 02:07:10;;;;;;;6.63;5.50;;;;;;;18.85;63.17;102468.59;5098179;28;20393;-69
2022/08/10 02:09:39;;;;;;;7.00;5.43;;;;;;;18.75;63.34;102466.81;5098744;28;20490;-69
2022/08/10 02:12:17;;;;;;;6.40;5.30;;;;;;;18.81;63.48;102472.13;5099419;28;20418;-68
2022/08/10 02:15:05;;;;;;;12.00;5.47;;;;;;;18.64;63.96;102472.91;5098287;28;20512;-69
2022/08/10 02:17:35;;;;;;;6.63;5.80;;;;;;;18.76;63.50;102477.38;5098115;28;20451;-70
2022/08/10 02:20:04;;;;;;;5.97;5.30;;;;;;;18.85;63.26;102471.25;5098230;28;20793;-69
2022/08/10 02:22:29;;;;;;;5.50;5.00;;;;;;;18.82;63.71;102473.84;5098960;28;20393;-69
2022/08/10 02:24:55;;;;;;;5.33;4.83;;;;;;;18.89;63.68;102473.06;5098584;28;20608;-70
2022/08/10 02:27:22;;;;;;;5.47;4.97;;;;;;;18.77;63.53;102471.22;5098041;28;20229;-69
2022/08/10 02:29:48;;;;;;;5.77;5.20;;;;;;;18.71;63.80;102473.81;5098019;28;20255;-69
2022/08/10 02:32:14;;;;;;;5.50;5.00;;;;;;;18.62;64.11;102465.91;5098566;28;20453;-69
2022/08/10 02:34:41;;;;;;;5.47;5.00;;;;;;;18.71;63.92;102470.31;5097827;28;20405;-68
2022/08/10 02:37:07;;;;;;;7.67;5.00;;;;;;;18.61;64.54;102466.75;5098428;28;20440;-69
2022/08/10 02:39:34;;;;;;;6.03;5.47;;;;;;;18.44;64.73;102472.88;5098595;28;20381;-69
2022/08/10 02:42:05;;;;;;;6.10;5.50;;;;;;;18.63;64.30;102470.28;5098164;28;20401;-69
2022/08/10 02:44:55;;;;;;;6.37;5.60;;;;;;;18.51;64.69;102464.09;5098391;28;20823;-69
2022/08/10 02:47:43;;;;;;;5.53;4.90;;;;;;;18.37;65.22;102467.53;5098579;28;20505;-70
2022/08/10 02:50:11;;;;;;;5.90;5.40;;;;;;;18.46;65.21;102465.81;5097878;28;20412;-70
2022/08/10 02:52:44;;;;;;;5.40;5.00;;;;;;;18.32;65.34;102460.47;5097767;28;20381;-70
2022/08/10 02:55:16;;;;;;;5.50;5.00;;;;;;;18.50;64.87;102464.94;5098141;28;20722;-69
2022/08/10 02:57:48;;;;;;;5.30;4.80;;;;;;;18.45;64.71;102464.03;5097536;28;20462;-69
2022/08/10 03:00:14;;;;;;;6.80;5.43;;;;;;;18.37;65.08;102460.47;5097658;28;20475;-69
2022/08/10 03:02:48;;;;;;;5.47;5.03;;;;;;;18.45;65.22;102455.25;5098250;28;20705;-70
2022/08/10 03:05:14;;;;;;;5.70;5.13;;;;;;;18.58;64.70;102467.63;5098233;28;20463;-70
2022/08/10 03:07:53;;;;;;;5.77;5.27;;;;;;;18.47;64.96;102459.66;5098289;28;20442;-70
2022/08/10 03:10:21;;;;;;;5.40;4.90;;;;;;;18.46;65.11;102457.03;5097747;28;20740;-69
2022/08/10 03:12:49;;;;;;;5.60;5.10;;;;;;;18.56;64.69;102457.94;5097380;28;20433;-69
2022/08/10 03:15:16;;;;;;;6.33;5.10;;;;;;;18.28;65.51;102456.06;5097410;28;20429;-71
2022/08/10 03:17:43;;;;;;;6.27;5.07;;;;;;;18.50;65.07;102462.31;5097933;28;20751;-68
2022/08/10 03:20:09;;;;;;;6.03;5.40;;;;;;;18.39;65.27;102463.13;5096854;28;20798;-68
2022/08/10 03:22:35;;;;;;;5.30;4.90;;;;;;;18.37;65.75;102459.63;5097365;28;20395;-69
2022/08/10 03:25:01;;;;;;;5.53;4.90;;;;;;;18.47;65.36;102459.66;5098281;28;20468;-69
2022/08/10 03:27:27;;;;;;;6.03;5.20;;;;;;;18.14;66.04;102471.81;5098023;28;20417;-69
2022/08/10 03:29:54;;;;;;;5.27;4.87;;;;;;;18.31;65.70;102466.63;5097335;28;20187;-70
2022/08/10 03:32:22;;;;;;;5.47;5.07;;;;;;;18.43;65.30;102470.19;5098446;28;20384;-70
2022/08/10 03:34:47;;;;;;;5.93;5.33;;;;;;;18.46;65.13;102467.59;5097680;28;20728;-69
2022/08/10 03:37:12;;;;;;;5.47;4.90;;;;;;;18.44;65.39;102469.31;5096941;28;20469;-68
2022/08/10 03:39:38;;;;;;;6.60;5.53;;;;;;;18.49;64.87;102470.22;5098248;28;20187;-68
2022/08/10 03:42:04;;;;;;;5.57;5.07;;;;;;;18.49;65.50;102475.50;5097265;28;20168;-68
2022/08/10 03:44:31;;;;;;;5.10;4.70;;;;;;;18.27;65.93;102482.47;5096972;28;20275;-68
2022/08/10 03:47:00;;;;;;;5.83;5.17;;;;;;;18.59;65.23;102472.03;5097702;28;20398;-68
2022/08/10 03:49:26;;;;;;;7.53;5.37;;;;;;;18.28;65.98;102481.56;5097101;28;20418;-68
2022/08/10 03:51:52;;;;;;;6.30;5.70;;;;;;;18.35;66.05;102476.31;5097835;28;20665;-69
2022/08/10 03:54:18;;;;;;;6.20;5.70;;;;;;;18.35;65.76;102483.38;5097036;28;20436;-68
2022/08/10 03:56:43;;;;;;;5.60;5.10;;;;;;;18.21;66.11;102485.03;5100098;28;20222;-69
2022/08/10 03:59:11;;;;;;;7.20;5.43;;;;;;;18.22;66.87;102477.13;5117096;28;20175;-69
2022/08/10 04:01:37;;;;;;;5.93;5.00;;;;;;;18.33;66.31;102486.00;5116933;28;20169;-70
2022/08/10 04:04:02;;;;;;;6.03;5.20;;;;;;;18.35;66.12;102480.72;5116913;28;20417;-69
2022/08/10 04:06:28;;;;;;;7.37;5.17;;;;;;;18.34;66.35;102486.88;5117414;28;20431;-69
2022/08/10 04:08:53;;;;;;;5.80;5.30;;;;;;;18.34;66.16;102481.59;5117054;28;20179;-68
2022/08/10 04:11:19;;;;;;;5.33;4.93;;;;;;;18.35;66.15;102480.72;5117674;28;20533;-69
2022/08/10 04:13:44;;;;;;;5.77;5.27;;;;;;;18.42;65.92;102492.22;5117982;28;20181;-69
2022/08/10 04:16:10;;;;;;;5.90;5.23;;;;;;;18.45;66.13;102482.53;5116627;28;20294;-69
2022/08/10 04:18:35;;;;;;;8.53;5.10;;;;;;;18.44;66.19;102479.88;5117661;28;20211;-67
2022/08/10 04:21:09;;;;;;;8.43;5.30;;;;;;;18.54;65.82;102479.06;5118156;28;20229;-68
2022/08/10 04:23:39;;;;;;;5.53;4.87;;;;;;;18.69;65.12;102472.94;5099863;28;20263;-67
2022/08/10 04:26:04;;;;;;;5.30;4.90;;;;;;;18.52;65.79;102476.41;5117607;28;20413;-67
2022/08/10 04:28:30;;;;;;;6.23;5.23;;;;;;;18.73;65.29;102480.00;5116933;28;20822;-68
2022/08/10 04:30:56;;;;;;;5.60;4.73;;;;;;;18.78;64.97;102480.91;5099677;28;20171;-68
2022/08/10 04:33:22;;;;;;;5.07;4.67;;;;;;;19.91;61.23;102474.91;5120509;28;20262;-69
2022/08/10 04:35:48;;;;;;;5.33;4.83;;;;;;;21.25;57.34;102470.81;5120400;28;20711;-69
2022/08/10 04:38:15;;;;;;;5.00;4.50;;;;;;;21.35;57.17;102477.78;5121161;28;20409;-69
2022/08/10 04:40:41;;;;;;;5.13;4.13;;;;;;;21.29;56.77;102478.72;5121646;28;20421;-70
2022/08/10 04:43:06;;;;;;;5.03;4.53;;;;;;;21.56;55.87;102475.91;5120244;28;20433;-69
2022/08/10 04:45:32;;;;;;;5.20;4.40;;;;;;;21.57;55.22;102480.31;5121019;28;20420;-68
2022/08/10 04:47:58;;;;;;;4.63;4.23;;;;;;;22.03;55.12;102483.41;5121391;28;20242;-68
2022/08/10 04:50:24;;;;;;;5.40;4.47;;;;;;;21.51;55.74;102487.41;5120555;28;20728;-69
2022/08/10 04:52:49;;;;;;;5.00;4.43;;;;;;;21.46;55.70;102488.31;5120975;28;20186;-69
2022/08/10 04:55:14;;;;;;;5.97;4.83;;;;;;;22.50;52.91;102480.25;5120676;28;20618;-69
2022/08/10 04:57:40;;;;;;;6.60;4.27;;;;;;;23.42;51.46;102490.50;5120758;28;20207;-66
2022/08/10 05:00:08;;;;;;;6.50;4.40;;;;;;;23.99;50.04;102481.53;5120699;28;20179;-69
2022/08/10 05:02:34;;;;;;;5.27;4.33;;;;;;;22.99;51.78;102484.03;5120834;28;20533;-68
2022/08/10 05:04:59;;;;;;;4.97;4.57;;;;;;;22.87;52.69;102491.28;5120402;28;20428;-68
2022/08/10 05:07:25;;;;;;;6.30;4.33;;;;;;;22.20;54.00;102491.19;5120664;28;20224;-69
2022/08/10 05:09:50;;;;;;;4.20;3.80;;;;;;;23.13;52.21;102489.19;5120506;28;20204;-69
2022/08/10 05:12:16;;;;;;;4.73;3.97;;;;;;;23.17;52.65;102493.53;5120580;28;20176;-67
2022/08/10 05:14:41;;;;;;;4.43;4.03;;;;;;;20.84;58.12;102497.56;5120405;28;20182;-69
2022/08/10 05:17:07;;;;;;;5.33;4.30;;;;;;;20.48;59.59;102495.94;5120330;28;20211;-68
2022/08/10 05:19:32;;;;;;;5.50;5.00;;;;;;;20.49;60.03;102495.91;5120265;28;20171;-69
2022/08/10 05:21:57;;;;;;;6.77;4.37;;;;;;;19.88;62.72;102501.34;5120610;28;20209;-69
2022/08/10 05:24:23;;;;;;;5.50;4.87;;;;;;;19.08;65.37;102508.34;5119929;28;20171;-69
2022/08/10 05:26:48;;;;;;;7.20;4.97;;;;;;;19.84;63.88;102501.38;5120208;28;20167;-69
2022/08/10 05:29:14;;;;;;;6.60;5.20;;;;;;;19.95;63.07;102495.19;5119589;28;20186;-69
2022/08/10 05:31:39;;;;;;;5.57;4.90;;;;;;;20.13;61.93;102497.81;5120354;28;20236;-69
2022/08/10 05:34:04;;;;;;;7.73;4.70;;;;;;;22.34;56.15;102492.81;5120084;28;20199;-67
2022/08/10 05:36:32;;;;;;;9.80;8.80;;;;;;;23.56;52.52;102488.50;5119983;28;20246;-67
2022/08/10 05:38:58;;;;;;;5.53;5.00;;;;;;;25.87;46.70;102479.06;5120142;28;20563;-68
2022/08/10 05:41:24;;;;;;;4.73;4.30;;;;;;;26.37;44.34;102476.81;5119099;28;20449;-68
2022/08/10 05:43:50;;;;;;;5.20;4.70;;;;;;;26.32;44.01;102478.75;5118842;28;20741;-69
2022/08/10 05:46:15;;;;;;;10.37;4.37;;;;;;;26.08;45.33;102485.66;5119936;28;20477;-68
2022/08/10 05:48:41;;;;;;;4.20;3.80;;;;;;;25.68;45.75;102468.00;5119738;28;20215;-68
2022/08/10 05:51:07;;;;;;;5.90;4.00;;;;;;;24.77;47.40;102486.19;5120099;28;20254;-66
2022/08/10 05:53:33;;;;;;;6.50;5.00;;;;;;;26.78;43.45;102476.50;5119366;28;20175;-66
2022/08/10 05:55:59;;;;;;;4.27;3.87;;;;;;;26.03;44.79;102479.56;5119508;28;20199;-67
2022/08/10 05:58:25;;;;;;;8.60;4.10;;;;;;;25.53;45.88;102475.53;5118632;28;20413;-67
2022/08/10 06:00:53;;;;;;;13.50;4.30;;;;;;;26.92;42.92;102473.41;5119498;28;20888;-67
2022/08/10 06:03:25;;;;;;;4.13;3.37;;;;;;;24.19;48.33;102481.13;5118746;28;20179;-67
2022/08/10 06:05:53;;;;;;;4.60;3.70;;;;;;;25.11;47.03;102475.59;5119071;28;20829;-67
2022/08/10 06:08:21;;;;;;;3.63;3.30;;;;;;;23.52;49.48;102484.97;5119404;28;20721;-66
2022/08/10 06:10:47;;;;;;;5.30;4.10;;;;;;;23.32;50.21;102487.97;5119426;28;20806;-67
2022/08/10 06:16:00;;;;;;;4.87;3.80;;;;;;;25.36;45.64;102469.72;5118444;28;20412;-68
2022/08/10 06:18:25;;;;;;;5.90;4.10;;;;;;;25.39;45.27;102480.31;5119429;28;20410;-69
2022/08/10 06:20:52;;;;;;;5.47;3.60;;;;;;;26.26;42.93;102475.38;5118687;28;20432;-69
2022/08/10 06:23:17;;;;;;;4.33;3.40;;;;;;;26.60;43.15;102477.91;5119164;28;20177;-70
2022/08/10 06:25:43;;;;;;;5.73;3.87;;;;;;;27.36;41.17;102475.53;5118745;28;20476;-70
2022/08/10 06:28:13;;;;;;;7.77;3.50;;;;;;;27.19;40.92;102473.44;5119276;28;20529;-69
2022/08/10 06:30:39;;;;;;;5.90;3.33;;;;;;;27.51;40.14;102477.75;5118509;28;20178;-69
2022/08/10 06:33:06;;;;;;;3.83;3.40;;;;;;;25.94;42.48;102483.34;5118175;28;20416;-69
2022/08/10 06:35:32;;;;;;;3.30;3.00;;;;;;;26.15;42.12;102468.53;5118970;28;20454;-69
2022/08/10 06:37:58;;;;;;;5.73;3.80;;;;;;;25.83;42.21;102478.28;5117945;28;20465;-70
2022/08/10 06:40:28;;;;;;;3.63;3.33;;;;;;;25.91;43.33;102478.06;5119342;28;20394;-69
2022/08/10 06:42:55;;;;;;;4.87;3.47;;;;;;;27.49;39.96;102468.88;5118796;28;20494;-69
2022/08/10 06:45:24;;;;;;;7.00;3.53;;;;;;;26.97;40.14;102462.56;5118074;28;20447;-69
2022/08/10 06:47:55;;;;;;;5.23;3.30;;;;;;;26.03;42.77;102468.88;5118867;28;20417;-69
2022/08/10 06:50:24;;;;;;;9.43;3.60;;;;;;;29.34;36.22;102447.59;5117721;28;20425;-70
2022/08/10 06:52:51;;;;;;;6.93;3.27;;;;;;;29.40;35.86;102451.81;5118084;28;20409;-67
2022/08/10 06:55:17;;;;;;;3.80;3.40;;;;;;;26.93;40.11;102452.84;5117074;28;20518;-68
2022/08/10 06:57:43;;;;;;;3.93;3.40;;;;;;;26.61;40.97;102462.75;5118602;28;20499;-68
2022/08/10 07:00:11;;;;;;;3.77;3.20;;;;;;;26.71;40.33;102459.78;5118328;28;20433;-69
2022/08/10 07:02:56;;;;;;;6.43;3.53;;;;;;;28.36;37.81;102445.22;5117809;28;20179;-70
2022/08/10 07:05:24;;;;;;;4.60;3.73;;;;;;;30.57;33.76;102443.88;5117791;28;20688;-68
2022/08/10 07:07:51;;;;;;;5.80;3.30;;;;;;;29.16;34.90;102443.84;5118344;28;20420;-67
2022/08/10 07:10:18;;;;;;;3.60;3.30;;;;;;;28.82;35.66;102445.25;5118521;28;20471;-67
2022/08/10 07:12:46;;;;;;;6.73;3.47;;;;;;;31.15;32.58;102444.69;5117988;28;20413;-68
2022/08/10 07:15:12;;;;;;;4.37;3.20;;;;;;;31.54;31.46;102446.28;5117753;28;20425;-69
2022/08/10 07:17:38;;;;;;;3.53;3.20;;;;;;;30.95;32.46;102452.88;5117479;28;20460;-68
2022/08/10 07:20:05;;;;;;;6.97;3.43;;;;;;;31.93;31.83;102446.94;5118149;28;20171;-67
2022/08/10 07:22:32;;;;;;;2.90;2.70;;;;;;;31.10;32.27;102452.13;5117587;28;20425;-68
2022/08/10 07:24:58;;;;;;;4.90;3.10;;;;;;;31.30;31.38;102455.59;5117944;28;20421;-69
2022/08/10 07:27:24;;;;;;;6.30;3.20;;;;;;;28.56;35.61;102457.84;5118582;28;20458;-69
2022/08/10 07:29:50;;;;;;;3.60;3.27;;;;;;;27.02;38.27;102473.97;5117249;28;20183;-68
2022/08/10 07:32:17;;;;;;;6.97;3.63;;;;;;;29.50;34.73;102469.31;5117357;28;20460;-68
2022/08/10 07:34:43;;;;;;;3.90;3.00;;;;;;;31.21;31.62;102465.03;5117785;28;20484;-68
2022/08/10 07:37:09;;;;;;;5.40;3.53;;;;;;;31.95;31.08;102457.63;5117972;28;20461;-68
2022/08/10 07:39:36;;;;;;;5.53;3.20;;;;;;;31.65;31.47;102470.00;5117245;28;20419;-67
2022/08/10 07:42:03;;;;;;;5.43;3.50;;;;;;;27.83;37.21;102478.44;5118312;28;20543;-69
2022/08/10 07:44:30;;;;;;;4.10;3.20;;;;;;;31.37;32.44;102468.69;5117325;28;20425;-69
2022/08/10 07:46:57;;;;;;;6.63;3.53;;;;;;;31.61;31.37;102472.91;5100300;28;20501;-70
2022/08/10 07:49:27;;;;;;;5.90;3.40;;;;;;;31.60;31.16;102469.38;5118199;28;20425;-70
2022/08/10 07:51:55;;;;;;;4.50;3.10;;;;;;;30.71;31.47;102482.72;5117886;28;20812;-69
2022/08/10 07:54:21;;;;;;;5.47;3.40;;;;;;;30.94;32.13;102481.59;5117522;28;20461;-70
2022/08/10 07:56:49;;;;;;;5.30;3.23;;;;;;;30.49;32.99;102475.69;5111916;28;20464;-70
2022/08/10 07:59:17;;;;;;;7.57;3.50;;;;;;;30.66;32.46;102469.50;5096780;28;20430;-71
2022/08/10 08:01:49;;;;;;;6.10;4.30;;;;;;;31.54;31.86;102478.63;5096783;28;20467;-69
2022/08/10 08:04:17;;;;;;;4.83;3.10;;;;;;;29.60;33.97;102485.03;5097632;28;20406;-70
2022/08/10 08:06:43;;;;;;;3.87;2.97;;;;;;;31.86;31.12;102470.66;5099807;28;20685;-70
2022/08/10 08:09:10;;;;;;;8.00;3.77;;;;;;;31.52;30.99;102472.41;5101431;28;20409;-70
2022/08/10 08:11:37;;;;;;;7.20;4.70;;;;;;;31.75;31.10;102462.28;5101621;28;20406;-70
2022/08/10 08:14:05;;;;;;;3.80;3.20;;;;;;;28.90;35.79;102475.34;5099946;28;20806;-70
2022/08/10 08:16:31;;;;;;;4.47;3.30;;;;;;;29.02;34.75;102481.13;5100425;28;20485;-70
2022/08/10 08:18:57;;;;;;;4.13;2.80;;;;;;;31.23;31.75;102472.09;5101409;28;20430;-70
2022/08/10 08:21:22;;;;;;;10.80;3.10;;;;;;;31.32;31.22;102473.44;5101112;28;20467;-71
2022/08/10 08:23:50;;;;;;;3.33;3.03;;;;;;;29.98;33.82;102472.59;5100334;28;20179;-70
2022/08/10 08:26:16;;;;;;;4.60;4.20;;;;;;;31.82;30.81;102466.41;5100444;28;20252;-70
2022/08/10 08:28:44;;;;;;;4.07;3.20;;;;;;;29.59;33.56;102477.91;5100184;28;20461;-69
2022/08/10 08:31:11;;;;;;;3.37;2.90;;;;;;;31.13;31.63;102467.25;5100601;28;20430;-69
2022/08/10 08:33:36;;;;;;;4.83;3.30;;;;;;;33.51;27.45;102455.09;5100896;28;20421;-69
2022/08/10 08:36:02;;;;;;;5.10;3.40;;;;;;;32.50;29.55;102464.56;5099815;28;20687;-69
2022/08/10 08:38:28;;;;;;;6.00;4.60;;;;;;;35.47;25.73;102451.59;5100024;28;20172;-69
2022/08/10 08:41:00;;;;;;;4.17;3.30;;;;;;;30.41;32.48;102469.75;5100875;28;20795;-69
2022/08/10 08:43:37;;;;;;;5.63;3.00;;;;;;;32.73;29.15;102463.28;5099916;28;20219;-69
2022/08/10 08:46:18;;;;;;;5.70;3.20;;;;;;;31.87;29.65;102467.03;5099911;28;20459;-67
2022/08/10 08:48:59;;;;;;;6.87;3.00;;;;;;;32.75;28.55;102455.97;5099459;28;20414;-68
2022/08/10 08:51:36;;;;;;;5.50;2.80;;;;;;;32.65;29.53;102455.59;5100575;28;20706;-69
2022/08/10 08:54:39;;;;;;;6.40;3.20;;;;;;;33.51;28.70;102457.81;5099475;28;20458;-68
2022/08/10 08:57:10;;;;;;;4.17;2.67;;;;;;;32.77;29.37;102453.16;5100318;28;20461;-67
2022/08/10 09:00:10;;;;;;;3.63;2.80;;;;;;;34.06;27.60;102445.41;5099599;28;20470;-69
2022/08/10 09:03:02;;;;;;;3.20;2.83;;;;;;;34.58;26.57;102446.59;5099757;28;20422;-69
2022/08/10 09:05:50;;;;;;;4.60;2.90;;;;;;;32.29;29.65;102450.44;5099453;28;20418;-69
2022/08/10 09:08:35;;;;;;;3.07;2.77;;;;;;;33.03;29.15;102441.72;5099747;28;20414;-69
2022/08/10 09:11:08;;;;;;;4.03;3.00;;;;;;;31.63;30.13;102449.47;5099655;28;20520;-70
2022/08/10 09:13:39;;;;;;;3.90;3.50;;;;;;;31.93;30.68;102449.63;5099331;28;20436;-69
2022/08/10 09:16:14;;;;;;;3.33;3.03;;;;;;;33.82;27.78;102446.97;5099474;28;20418;-69
2022/08/10 09:18:55;;;;;;;4.27;2.97;;;;;;;32.73;29.55;102442.56;5081529;28;20845;-68
2022/08/10 09:21:43;;;;;;;3.17;2.93;;;;;;;30.27;31.79;102456.06;5098879;28;20497;-68
2022/08/10 09:24:21;;;;;;;4.00;2.87;;;;;;;32.20;29.72;102446.41;5099855;28;20414;-67
2022/08/10 09:26:49;;;;;;;4.10;2.67;;;;;;;28.43;34.02;102451.22;5099064;28;20675;-67
2022/08/10 09:29:38;;;;;;;4.40;2.90;;;;;;;30.00;33.44;102446.53;5099791;28;20421;-67
2022/08/10 09:32:08;;;;;;;3.17;2.90;;;;;;;32.07;30.00;102438.97;5099058;28;20735;-66
2022/08/10 09:34:53;;;;;;;3.90;3.07;;;;;;;31.70;30.36;102442.78;5099127;28;20878;-67
2022/08/10 09:37:31;;;;;;;4.13;2.67;;;;;;;27.65;36.47;102449.59;5099223;28;20461;-69
2022/08/10 09:40:05;;;;;;;5.60;2.87;;;;;;;30.34;32.58;102444.09;5099085;28;20505;-68
2022/08/10 09:42:55;;;;;;;2.50;2.30;;;;;;;32.70;28.23;102428.31;5098922;28;20512;-66
2022/08/10 09:45:31;;;;;;;2.97;2.50;;;;;;;32.97;29.09;102425.84;5098782;28;20804;-68
2022/08/10 09:48:11;;;;;;;2.80;2.10;;;;;;;31.86;28.50;102429.34;5099436;28;20425;-67
2022/08/10 09:50:54;;;;;;;3.00;2.23;;;;;;;34.40;25.88;102426.16;5099141;28;20410;-69
2022/08/10 09:53:55;;;;;;;3.47;2.40;;;;;;;35.25;24.58;102429.50;5098006;28;20675;-66
2022/08/10 09:56:31;;;;;;;3.17;2.30;;;;;;;33.40;27.14;102431.41;5098341;28;20462;-68
2022/08/10 09:59:10;;;;;;;3.37;2.30;;;;;;;33.46;27.17;102429.31;5099072;28;20827;-68
2022/08/10 10:01:45;;;;;;;2.50;2.30;;;;;;;33.10;27.68;102423.31;5098208;28;20451;-68
2022/08/10 10:04:21;;;;;;;4.30;2.87;;;;;;;34.75;25.57;102412.13;5098228;28;20494;-68
2022/08/10 10:07:05;;;;;;;2.30;2.10;;;;;;;30.50;30.11;102429.00;5098559;28;20444;-68
2022/08/10 10:09:36;;;;;;;2.97;2.67;;;;;;;33.40;27.22;102419.75;5098898;28;20409;-69
2022/08/10 10:12:24;;;;;;;2.50;2.30;;;;;;;33.79;26.13;102407.44;5098366;28;20423;-67
2022/08/10 10:18:01;;;;;;;3.30;2.30;;;;;;;34.56;25.23;102407.06;5098903;28;20461;-68
2022/08/10 10:21:04;;;;;;;2.53;2.30;;;;;;;34.60;24.62;102397.78;5098964;28;20501;-67
2022/08/10 10:23:59;;;;;;;2.77;2.57;;;;;;;34.75;25.17;102394.03;5098870;28;20765;-67
2022/08/10 10:26:53;;;;;;;2.93;2.63;;;;;;;34.33;26.31;102392.31;5099091;28;20477;-66
2022/08/10 10:29:36;;;;;;;2.90;2.20;;;;;;;33.71;26.67;102396.22;5105805;28;20432;-69
2022/08/10 10:32:08;;;;;;;2.40;2.20;;;;;;;32.87;27.24;102394.97;5119048;28;20480;-69
2022/08/10 10:34:41;;;;;;;2.40;2.20;;;;;;;33.17;27.02;102392.25;5119063;28;20409;-71
2022/08/10 10:37:07;;;;;;;3.50;2.10;;;;;;;33.35;27.30;102384.88;5118830;28;20768;-70
2022/08/10 10:39:35;;;;;;;2.70;2.50;;;;;;;34.12;25.06;102390.03;5118109;28;20861;-68
2022/08/10 10:42:11;;;;;;;2.93;2.20;;;;;;;32.98;27.67;102389.78;5117973;28;20725;-69
2022/08/10 10:44:45;;;;;;;3.60;2.20;;;;;;;31.05;29.44;102398.50;5118133;28;20857;-69
2022/08/10 10:47:45;;;;;;;2.87;2.10;;;;;;;31.97;27.72;102389.16;5117983;28;20781;-69
2022/08/10 10:50:16;;;;;;;2.60;2.40;;;;;;;33.67;25.47;102381.16;5117687;28;20428;-69
2022/08/10 10:52:50;;;;;;;3.10;2.40;;;;;;;33.79;25.89;102371.41;5117741;28;20409;-69
2022/08/10 10:55:29;;;;;;;2.50;2.23;;;;;;;32.89;26.73;102372.31;5117722;28;20497;-69
2022/08/10 10:58:03;;;;;;;3.83;2.40;;;;;;;33.48;25.65;102371.47;5118352;28;20570;-70
2022/08/10 11:00:43;;;;;;;3.13;2.60;;;;;;;32.51;27.06;102383.47;5117596;28;20470;-69
2022/08/10 11:03:28;;;;;;;2.40;2.20;;;;;;;31.96;27.77;102378.47;5117322;28;20684;-70
2022/08/10 11:06:09;;;;;;;2.50;2.23;;;;;;;32.11;27.56;102374.03;5118703;28;20794;-69
2022/08/10 11:08:38;;;;;;;2.30;2.10;;;;;;;32.84;26.27;102371.69;5118348;28;20410;-69
2022/08/10 11:11:28;;;;;;;2.33;2.00;;;;;;;32.51;26.43;102367.28;5118284;28;20410;-68
2022/08/10 11:13:56;;;;;;;3.33;2.00;;;;;;;32.67;26.35;102372.66;5105044;28;20733;-68
2022/08/10 11:16:47;;;;;;;3.20;2.30;;;;;;;33.55;25.67;102369.25;5118354;28;20456;-70
2022/08/10 11:19:19;;;;;;;5.30;2.60;;;;;;;33.61;26.25;102366.16;5117086;28;20732;-69
2022/08/10 11:22:34;;;;;;;3.27;2.40;;;;;;;32.63;26.57;102367.53;5118334;28;20836;-69
2022/08/10 11:25:02;;;;;;;2.63;2.23;;;;;;;32.47;26.90;102357.59;5036008;28;20435;-69
2022/08/10 11:27:47;;;;;;;2.63;2.43;;;;;;;32.84;26.42;102360.91;5036328;28;20417;-68
2022/08/10 11:30:18;;;;;;;2.33;2.13;;;;;;;31.85;27.76;102363.75;5086710;28;20413;-68
2022/08/10 11:33:10;;;;;;;5.00;3.20;;;;;;;29.64;30.71;102366.56;5118208;28;20405;-68
2022/08/10 11:35:54;;;;;;;3.10;2.53;;;;;;;32.19;27.25;102351.13;5086918;28;20673;-67
2022/08/10 11:38:34;;;;;;;3.10;2.40;;;;;;;32.14;27.57;102347.78;5118207;28;20532;-68
2022/08/10 11:41:02;;;;;;;5.23;2.73;;;;;;;32.01;27.13;102344.03;5119196;28;20409;-69
2022/08/10 11:43:28;;;;;;;2.40;2.20;;;;;;;29.20;30.28;102356.81;5121464;28;20434;-68
2022/08/10 11:46:03;;;;;;;2.40;2.20;;;;;;;31.22;27.90;102345.56;5121511;28;20424;-68
2022/08/10 11:48:42;;;;;;;2.77;2.43;;;;;;;31.52;27.36;102347.56;5121414;28;20456;-68